Für Piloten

Informationen für Piloten zum Flugplatz Borken-Hoxfeld
Hier findest Du alle relevanten Informationen, die Du als Pilot benötigst, um Borken-Hoxfeld anzufliegen.

Flugplatz: Borken-Hoxfeld ICAO-Code: EDLY
Borken-Hoxfeld Info: 122,925 Mhz
GAFOR Gebiet: 32
Platzrunde: Motorflug; -> Südplatzrunde; Segelflug; -> Nordplatzrunde;
Landegebühr: z.Zt. 5,00 Euro
Platzhöhe: 48m üMSL
Pisten: 12/30 – 740 m x 30 m, GRAS
Betriebszeiten: PPR (in den Sommermonaten Mittagspause beachten)

 

Wetterforecast:

Available data for EDDL from the past 2 hours
DUESSELDORF
Metar
EDDL 221420Z 17012KT CAVOK 14/06 Q1006 NOSIG

14:20 UTC

Wind: 170° 12kt

Visibility:

Sky:

Temp: 14 deg C / 57.2 deg F

Dewpoint: 6 deg C / 42.8 deg F

Pressure: 1006 hPa

TAF
TAF EDDL 221100Z 2212/2318 17013KT CAVOK BECMG 2300/2303 16015G25KT TEMPO 2307/2315 21020G30KT TEMPO 2314/2318 SHRA BKN030TCU BECMG 2315/2318 25011KT

Alle obigen Informationen ersetzen nicht die vorgeschriebene, persönliche Flugvorbereitung.